createdAt,value
2022-09-12T00:01:23.737Z,8.27
2022-09-12T00:04:00.334Z,10.50
2022-09-12T00:06:36.637Z,8.25
2022-09-12T00:09:10.996Z,7.85
2022-09-12T00:11:44.102Z,7.43
2022-09-12T00:14:17.731Z,7.68
2022-09-12T00:16:44.930Z,7.85
2022-09-12T00:19:13.156Z,8.55
2022-09-12T00:21:41.984Z,8.38
2022-09-12T00:24:11.100Z,10.63
2022-09-12T00:26:38.187Z,7.63
2022-09-12T00:29:05.268Z,7.67
2022-09-12T00:31:32.992Z,7.77
2022-09-12T00:34:01.771Z,6.65
2022-09-12T00:36:31.914Z,8.90
2022-09-12T00:38:59.388Z,10.00
2022-09-12T00:41:39.099Z,10.20
2022-09-12T00:44:23.796Z,8.38
2022-09-12T00:47:00.908Z,6.45
2022-09-12T00:49:54.896Z,8.45
2022-09-12T00:52:51.964Z,8.50
2022-09-12T00:55:30.548Z,7.97
2022-09-12T00:58:08.006Z,7.70
2022-09-12T01:03:22.066Z,8.55
2022-09-12T01:06:12.553Z,6.32
2022-09-12T01:08:44.540Z,6.93
2022-09-12T01:11:15.695Z,8.50
2022-09-12T01:13:46.341Z,7.20
2022-09-12T01:16:13.704Z,6.80
2022-09-12T01:19:35.228Z,7.40
2022-09-12T01:23:05.887Z,10.27
2022-09-12T01:26:04.927Z,8.15
2022-09-12T01:28:50.717Z,8.32
2022-09-12T01:31:57.808Z,8.25
2022-09-12T01:34:49.407Z,7.65
2022-09-12T01:37:34.295Z,11.18
2022-09-12T01:40:42.460Z,7.38
2022-09-12T01:43:58.295Z,8.85
2022-09-12T01:46:55.054Z,7.00
2022-09-12T01:49:39.522Z,6.88
2022-09-12T01:52:47.062Z,5.68
2022-09-12T01:55:32.592Z,6.32
2022-09-12T01:58:21.202Z,7.32
2022-09-12T02:01:16.616Z,8.05
2022-09-12T02:04:14.863Z,7.07
2022-09-12T02:07:31.593Z,9.27
2022-09-12T02:10:19.639Z,6.43
2022-09-12T02:13:37.955Z,6.28
2022-09-12T02:16:19.783Z,7.53
2022-09-12T02:19:07.497Z,9.20
2022-09-12T02:21:45.344Z,6.78
2022-09-12T02:24:17.224Z,7.78
2022-09-12T02:26:57.793Z,5.50
2022-09-12T02:29:24.771Z,7.13
2022-09-12T02:32:23.855Z,6.20
2022-09-12T02:34:59.000Z,6.88
2022-09-12T02:37:50.421Z,7.18
2022-09-12T02:40:19.444Z,7.80
2022-09-12T02:42:46.515Z,9.05
2022-09-12T02:45:14.035Z,7.40
2022-09-12T02:48:16.955Z,6.28
2022-09-12T02:50:45.863Z,7.50
2022-09-12T02:53:13.523Z,6.28
2022-09-12T02:55:43.829Z,8.63
2022-09-12T02:58:24.810Z,9.13
2022-09-12T03:01:16.516Z,4.70
2022-09-12T03:04:26.370Z,6.70
2022-09-12T03:07:40.918Z,7.67
2022-09-12T03:10:40.085Z,5.03
2022-09-12T03:13:58.218Z,6.40
2022-09-12T03:16:46.821Z,6.15
2022-09-12T03:20:11.561Z,8.07
2022-09-12T03:23:14.990Z,6.75
2022-09-12T03:26:01.341Z,4.82
2022-09-12T03:28:33.071Z,5.25
2022-09-12T03:31:00.170Z,5.53
2022-09-12T03:33:27.651Z,5.30
2022-09-12T03:35:56.203Z,5.07
2022-09-12T03:38:23.150Z,5.70
2022-09-12T03:40:54.162Z,5.38
2022-09-12T03:43:21.976Z,8.32
2022-09-12T03:45:54.403Z,6.13
2022-09-12T03:48:21.491Z,6.05
2022-09-12T03:50:48.412Z,4.50
2022-09-12T03:53:17.376Z,4.80
2022-09-12T03:55:44.875Z,5.85
2022-09-12T03:58:11.832Z,5.50
2022-09-12T04:00:39.779Z,5.43
2022-09-12T04:03:06.701Z,6.03
2022-09-12T04:05:33.642Z,4.43
2022-09-12T04:08:00.562Z,4.20
2022-09-12T04:10:27.694Z,6.22
2022-09-12T04:12:54.610Z,4.70
2022-09-12T04:15:21.536Z,4.00
2022-09-12T04:17:48.451Z,5.25
2022-09-12T04:20:15.558Z,3.92
2022-09-12T04:22:42.526Z,4.37
2022-09-12T04:25:10.020Z,4.70
2022-09-12T04:27:37.619Z,4.13
2022-09-12T04:30:05.962Z,4.97
2022-09-12T04:32:32.881Z,3.30
2022-09-12T04:34:59.800Z,3.40
2022-09-12T04:37:26.845Z,3.72
2022-09-12T04:39:57.919Z,5.70
2022-09-12T04:42:25.708Z,5.93
2022-09-12T04:44:52.781Z,5.07
2022-09-12T04:47:19.922Z,3.78
2022-09-12T04:49:48.744Z,4.93
2022-09-12T04:52:15.647Z,5.60
2022-09-12T04:54:43.462Z,3.47
2022-09-12T04:57:10.967Z,6.35
2022-09-12T04:59:39.401Z,4.82
2022-09-12T05:02:06.391Z,8.40
2022-09-12T05:04:33.395Z,4.68
2022-09-12T05:07:00.457Z,4.45
2022-09-12T05:09:27.546Z,3.45
2022-09-12T05:12:09.705Z,3.43
2022-09-12T05:14:37.132Z,5.05
2022-09-12T05:17:06.156Z,3.30
2022-09-12T05:19:33.920Z,3.88
2022-09-12T05:22:01.096Z,6.45
2022-09-12T05:24:28.936Z,3.93
2022-09-12T05:26:56.353Z,5.35
2022-09-12T05:29:25.201Z,4.55
2022-09-12T05:31:52.998Z,5.25
2022-09-12T05:34:21.472Z,3.97
2022-09-12T05:36:49.334Z,4.10
2022-09-12T05:39:16.676Z,4.65
2022-09-12T05:41:43.599Z,8.77
2022-09-12T05:44:15.155Z,10.40
2022-09-12T05:46:48.666Z,6.50
2022-09-12T05:49:15.645Z,6.68
2022-09-12T05:51:45.910Z,9.70
2022-09-12T05:54:19.500Z,7.97
2022-09-12T05:56:47.548Z,8.90
2022-09-12T06:01:48.758Z,11.60
2022-09-12T06:04:17.003Z,7.70
2022-09-12T06:09:16.730Z,9.00
2022-09-12T06:11:46.999Z,9.75
2022-09-12T06:14:17.962Z,7.47
2022-09-12T06:16:45.300Z,9.13
2022-09-12T06:19:23.812Z,7.75
2022-09-12T06:21:51.660Z,9.43
2022-09-12T06:24:21.633Z,10.73
2022-09-12T06:26:52.852Z,12.68
2022-09-12T06:29:20.069Z,8.43
2022-09-12T06:31:47.028Z,12.80
2022-09-12T06:34:16.595Z,8.38
2022-09-12T06:36:48.255Z,11.88
2022-09-12T06:39:21.111Z,10.38
2022-09-12T06:41:51.523Z,12.50
2022-09-12T06:44:22.649Z,10.13
2022-09-12T06:46:50.328Z,8.52
2022-09-12T06:49:17.874Z,10.60
2022-09-12T06:51:45.305Z,9.82
2022-09-12T06:54:20.094Z,9.15
2022-09-12T06:56:47.136Z,12.73
2022-09-12T06:59:14.430Z,9.10
2022-09-12T07:01:42.167Z,9.43
2022-09-12T07:04:10.502Z,10.95
2022-09-12T07:06:44.621Z,9.00
2022-09-12T07:09:17.751Z,9.32
2022-09-12T07:11:46.753Z,8.32
2022-09-12T07:14:15.591Z,8.23
2022-09-12T07:16:43.656Z,9.50
2022-09-12T07:19:12.197Z,6.63
2022-09-12T07:21:40.513Z,7.50
2022-09-12T07:24:10.961Z,8.82
2022-09-12T07:26:40.682Z,9.55
2022-09-12T07:29:35.935Z,7.20
2022-09-12T07:32:04.225Z,7.30
2022-09-12T07:34:32.639Z,6.60
2022-09-12T07:36:59.554Z,8.23
2022-09-12T07:39:26.475Z,7.28
2022-09-12T07:41:53.536Z,5.25
2022-09-12T07:44:22.048Z,8.50
2022-09-12T07:46:50.683Z,5.53
2022-09-12T07:49:17.637Z,5.93
2022-09-12T07:51:44.616Z,4.43
2022-09-12T07:54:11.984Z,5.37
2022-09-12T07:56:39.561Z,8.30
2022-09-12T07:59:10.277Z,3.63
2022-09-12T08:01:37.400Z,3.25
2022-09-12T08:04:05.285Z,4.88
2022-09-12T08:06:36.062Z,4.43
2022-09-12T08:09:05.416Z,4.28
2022-09-12T08:11:32.478Z,4.75
2022-09-12T08:14:01.795Z,4.43
2022-09-12T08:16:32.239Z,2.60
2022-09-12T08:19:03.100Z,5.07
2022-09-12T08:21:33.469Z,3.80
2022-09-12T08:24:05.989Z,2.45
2022-09-12T08:26:34.890Z,3.28
2022-09-12T08:29:02.568Z,2.25
2022-09-12T08:31:36.404Z,2.80
2022-09-12T08:34:06.144Z,2.78
2022-09-12T08:36:33.840Z,2.38
2022-09-12T08:39:06.687Z,2.35
2022-09-12T08:41:49.025Z,2.95
2022-09-12T08:44:59.703Z,4.07
2022-09-12T08:47:43.420Z,3.50
2022-09-12T08:50:10.290Z,2.05
2022-09-12T08:53:13.069Z,3.50
2022-09-12T08:56:03.191Z,2.20
2022-09-12T08:58:40.383Z,2.42
2022-09-12T09:01:38.497Z,1.90
2022-09-12T09:04:41.711Z,1.85
2022-09-12T09:08:16.396Z,3.33
2022-09-12T09:11:33.691Z,3.60
2022-09-12T09:14:50.875Z,2.97
2022-09-12T09:17:45.134Z,2.08
2022-09-12T09:20:41.378Z,2.17
2022-09-12T09:23:19.975Z,2.25
2022-09-12T09:26:46.087Z,1.85
2022-09-12T09:29:22.645Z,1.98
2022-09-12T09:31:57.750Z,2.55
2022-09-12T09:34:31.712Z,3.25
2022-09-12T09:37:44.683Z,2.38
2022-09-12T09:40:30.118Z,1.98
2022-09-12T09:43:27.558Z,2.08
2022-09-12T09:45:57.908Z,2.45
2022-09-12T09:48:42.545Z,3.95
2022-09-12T09:51:10.099Z,2.40
2022-09-12T09:53:54.067Z,1.90
2022-09-12T09:56:43.222Z,2.25
2022-09-12T10:02:21.766Z,3.38
2022-09-12T10:04:59.829Z,2.13
2022-09-12T10:07:27.694Z,1.35
2022-09-12T10:13:09.180Z,3.22
2022-09-12T10:15:36.655Z,2.13
2022-09-12T10:18:04.804Z,1.65
2022-09-12T10:20:45.127Z,2.13
2022-09-12T10:23:37.817Z,2.92
2022-09-12T10:26:19.627Z,2.55
2022-09-12T10:28:55.991Z,2.08
2022-09-12T10:31:43.608Z,3.92
2022-09-12T10:34:45.393Z,3.92
2022-09-12T10:37:38.240Z,4.07
2022-09-12T10:40:25.084Z,1.88
2022-09-12T10:43:00.711Z,1.65
2022-09-12T10:45:32.677Z,3.58
2022-09-12T10:48:39.841Z,2.83
2022-09-12T10:51:24.282Z,2.20
2022-09-12T10:54:06.569Z,1.65
2022-09-12T10:57:02.044Z,1.65
2022-09-12T11:00:18.180Z,1.88
2022-09-12T11:03:22.947Z,1.88
2022-09-12T11:06:00.527Z,1.40
2022-09-12T11:09:10.013Z,1.50
2022-09-12T11:12:27.092Z,2.05
2022-09-12T11:15:38.332Z,1.98
2022-09-12T11:18:33.627Z,1.80
2022-09-12T11:21:53.185Z,2.00
2022-09-12T11:24:51.047Z,2.90
2022-09-12T11:28:00.777Z,2.50
2022-09-12T11:31:09.800Z,4.47
2022-09-12T11:33:48.474Z,2.20
2022-09-12T11:37:07.419Z,3.03
2022-09-12T11:39:46.882Z,1.40
2022-09-12T11:42:36.821Z,1.60
2022-09-12T11:45:22.134Z,1.30
2022-09-12T11:48:01.334Z,1.50
2022-09-12T11:50:32.490Z,2.45
2022-09-12T11:53:30.710Z,1.20
2022-09-12T11:56:18.511Z,1.90
2022-09-12T11:59:12.114Z,1.55
2022-09-12T12:01:48.847Z,1.27
2022-09-12T12:04:32.267Z,3.15
2022-09-12T12:07:11.877Z,1.60
2022-09-12T12:09:52.099Z,1.40
2022-09-12T12:12:29.045Z,4.18
2022-09-12T12:14:59.151Z,2.03
2022-09-12T12:17:29.684Z,3.25
2022-09-12T12:20:08.414Z,1.45
2022-09-12T12:22:36.159Z,1.23
2022-09-12T12:25:53.196Z,1.20
2022-09-12T12:28:41.882Z,1.42
2022-09-12T12:31:11.594Z,1.63
2022-09-12T12:33:38.405Z,2.38
2022-09-12T12:36:38.691Z,2.55
2022-09-12T12:40:01.431Z,2.22
2022-09-12T12:42:34.499Z,1.48
2022-09-12T12:45:09.947Z,1.50
2022-09-12T12:47:41.165Z,2.20
2022-09-12T12:50:29.339Z,2.50
2022-09-12T12:53:05.695Z,1.50
2022-09-12T12:55:44.192Z,1.95
2022-09-12T12:58:36.338Z,1.98
2022-09-12T13:01:23.383Z,1.45
2022-09-12T13:04:20.136Z,2.28
2022-09-12T13:07:08.445Z,1.50
2022-09-12T13:09:53.064Z,2.85
2022-09-12T13:12:45.609Z,2.58
2022-09-12T13:15:37.723Z,1.55
2022-09-12T13:18:15.787Z,1.63
2022-09-12T13:21:14.275Z,2.70
2022-09-12T13:23:43.261Z,1.55
2022-09-12T13:26:25.832Z,1.45
2022-09-12T13:29:22.889Z,3.08
2022-09-12T13:31:58.640Z,1.85
2022-09-12T13:34:37.230Z,3.10
2022-09-12T13:37:54.692Z,1.35
2022-09-12T13:40:40.525Z,2.22
2022-09-12T13:43:40.694Z,2.70
2022-09-12T13:46:15.264Z,2.53
2022-09-12T13:48:44.394Z,3.63
2022-09-12T13:51:27.912Z,1.67
2022-09-12T13:54:05.177Z,2.45
2022-09-12T13:56:32.283Z,3.60
2022-09-12T13:59:02.571Z,3.35
2022-09-12T14:01:48.473Z,4.53
2022-09-12T14:04:46.005Z,3.25
2022-09-12T14:07:26.234Z,2.47
2022-09-12T14:09:59.748Z,1.60
2022-09-12T14:12:43.972Z,1.75
2022-09-12T14:15:28.927Z,1.80
2022-09-12T14:18:01.945Z,1.33
2022-09-12T14:20:37.120Z,2.53
2022-09-12T14:23:30.826Z,2.15
2022-09-12T14:26:04.220Z,1.45
2022-09-12T14:28:37.127Z,1.30
2022-09-12T14:31:34.924Z,1.95
2022-09-12T14:34:18.725Z,1.83
2022-09-12T14:36:56.336Z,1.88
2022-09-12T14:39:45.634Z,1.90
2022-09-12T14:42:21.260Z,1.67
2022-09-12T14:45:31.465Z,1.83
2022-09-12T14:47:59.574Z,2.00
2022-09-12T14:50:35.840Z,3.78
2022-09-12T14:53:24.957Z,2.92
2022-09-12T14:58:37.669Z,1.50
2022-09-12T15:01:07.369Z,2.30
2022-09-12T15:03:49.300Z,1.50
2022-09-12T15:06:39.831Z,2.42
2022-09-12T15:09:13.948Z,1.77
2022-09-12T15:11:40.869Z,2.92
2022-09-12T15:14:14.568Z,2.47
2022-09-12T15:16:42.210Z,1.63
2022-09-12T15:19:09.597Z,1.40
2022-09-12T15:21:36.594Z,2.40
2022-09-12T15:24:03.862Z,4.20
2022-09-12T15:26:31.764Z,1.73
2022-09-12T15:28:58.730Z,1.75
2022-09-12T15:31:32.253Z,2.25
2022-09-12T15:34:02.677Z,1.30
2022-09-12T15:36:29.797Z,1.95
2022-09-12T15:38:57.448Z,2.38
2022-09-12T15:41:37.037Z,2.20
2022-09-12T15:44:12.500Z,1.98
2022-09-12T15:46:40.793Z,1.50
2022-09-12T15:49:07.785Z,2.65
2022-09-12T15:51:34.776Z,2.45
2022-09-12T15:54:04.906Z,2.63
2022-09-12T15:56:31.872Z,4.82
2022-09-12T15:59:00.076Z,2.10
2022-09-12T16:01:29.425Z,1.75
2022-09-12T16:03:57.543Z,1.98
2022-09-12T16:06:24.760Z,4.05
2022-09-12T16:08:51.861Z,2.13
2022-09-12T16:11:26.656Z,1.42
2022-09-12T16:13:56.883Z,3.78
2022-09-12T16:16:24.239Z,4.25
2022-09-12T16:18:51.214Z,2.35
2022-09-12T16:21:18.324Z,1.50
2022-09-12T16:23:48.146Z,2.00
2022-09-12T16:26:16.812Z,1.80
2022-09-12T16:28:44.375Z,3.60
2022-09-12T16:31:14.365Z,2.25
2022-09-12T16:33:41.818Z,1.88
2022-09-12T16:36:14.633Z,1.70
2022-09-12T16:38:52.153Z,3.22
2022-09-12T16:41:27.143Z,3.97
2022-09-12T16:43:55.628Z,3.63
2022-09-12T16:46:31.521Z,2.42
2022-09-12T16:48:59.856Z,1.77
2022-09-12T16:51:35.878Z,3.45
2022-09-12T16:54:03.980Z,1.85
2022-09-12T16:56:31.193Z,2.20
2022-09-12T16:58:58.099Z,2.83
2022-09-12T17:01:26.984Z,1.60
2022-09-12T17:03:57.551Z,2.67
2022-09-12T17:06:27.718Z,3.35
2022-09-12T17:09:04.420Z,2.58
2022-09-12T17:11:39.153Z,1.92
2022-09-12T17:14:09.055Z,1.88
2022-09-12T17:16:42.767Z,3.83
2022-09-12T17:19:20.366Z,5.93
2022-09-12T17:21:48.897Z,3.30
2022-09-12T17:24:18.570Z,2.55
2022-09-12T17:26:47.127Z,3.60
2022-09-12T17:29:15.483Z,2.25
2022-09-12T17:31:45.015Z,3.22
2022-09-12T17:34:14.692Z,2.35
2022-09-12T17:36:44.919Z,2.88
2022-09-12T17:39:14.595Z,2.55
2022-09-12T17:41:43.018Z,2.38
2022-09-12T17:44:15.143Z,2.20
2022-09-12T17:46:43.020Z,3.33
2022-09-12T17:51:46.179Z,3.78
2022-09-12T17:54:20.847Z,7.80
2022-09-12T17:56:49.844Z,4.30
2022-09-12T17:59:21.967Z,2.83
2022-09-12T18:02:07.822Z,4.63
2022-09-12T18:04:34.839Z,9.43
2022-09-12T18:07:01.834Z,2.50
2022-09-12T18:09:30.677Z,2.87
2022-09-12T18:11:58.572Z,2.60
2022-09-12T18:17:00.293Z,3.85
2022-09-12T18:19:28.752Z,4.13
2022-09-12T18:21:57.000Z,2.95
2022-09-12T18:24:24.353Z,3.67
2022-09-12T18:26:51.300Z,3.85
2022-09-12T18:29:20.045Z,2.80
2022-09-12T18:31:47.262Z,4.00
2022-09-12T18:34:17.310Z,4.45
2022-09-12T18:36:49.455Z,5.03
2022-09-12T18:39:18.267Z,6.13
2022-09-12T18:41:45.234Z,6.20
2022-09-12T18:44:13.100Z,6.93
2022-09-12T18:46:40.296Z,9.25
2022-09-12T18:49:08.741Z,9.18
2022-09-12T18:51:40.026Z,7.93
2022-09-12T18:54:14.054Z,8.45
2022-09-12T18:56:43.622Z,10.68
2022-09-12T18:59:14.142Z,9.60
2022-09-12T19:01:43.277Z,9.52
2022-09-12T19:04:13.579Z,10.00
2022-09-12T19:06:46.412Z,9.75
2022-09-12T19:09:18.896Z,11.68
2022-09-12T19:11:51.204Z,10.82
2022-09-12T19:14:23.803Z,11.30
2022-09-12T19:16:52.439Z,10.07
2022-09-12T19:19:21.298Z,13.43
2022-09-12T19:21:48.635Z,12.65
2022-09-12T19:24:16.628Z,14.52
2022-09-12T19:26:44.865Z,13.30
2022-09-12T19:29:14.358Z,11.95
2022-09-12T19:31:41.298Z,12.60
2022-09-12T19:34:10.627Z,13.03
2022-09-12T19:36:45.344Z,11.88
2022-09-12T19:39:16.429Z,13.82
2022-09-12T19:41:44.980Z,12.50
2022-09-12T19:44:12.696Z,11.80
2022-09-12T19:46:40.477Z,14.70
2022-09-12T19:49:07.826Z,11.63
2022-09-12T19:51:34.887Z,13.25
2022-09-12T19:54:01.977Z,12.13
2022-09-12T19:56:29.440Z,10.93
2022-09-12T19:58:56.993Z,13.02
2022-09-12T20:01:28.803Z,12.35
2022-09-12T20:03:59.524Z,14.77
2022-09-12T20:06:28.025Z,11.68
2022-09-12T20:08:56.137Z,12.35
2022-09-12T20:11:25.607Z,11.85
2022-09-12T20:13:53.537Z,14.63
2022-09-12T20:19:08.602Z,12.18
2022-09-12T20:21:37.119Z,11.77
2022-09-12T20:24:13.468Z,13.70
2022-09-12T20:26:41.932Z,13.23
2022-09-12T20:29:10.633Z,12.38
2022-09-12T20:31:41.142Z,11.73
2022-09-12T20:34:16.463Z,12.95
2022-09-12T20:36:43.693Z,11.95
2022-09-12T20:39:23.434Z,13.50
2022-09-12T20:41:51.426Z,12.93
2022-09-12T20:46:46.156Z,12.95
2022-09-12T20:49:13.309Z,19.85
2022-09-12T20:51:40.316Z,11.70
2022-09-12T20:54:07.960Z,14.10
2022-09-12T20:56:37.677Z,10.70
2022-09-12T20:59:06.050Z,12.30
2022-09-12T21:01:33.727Z,12.73
2022-09-12T21:04:01.939Z,12.73
2022-09-12T21:06:29.250Z,11.32
2022-09-12T21:08:59.916Z,13.60
2022-09-12T21:11:28.937Z,10.43
2022-09-12T21:13:56.543Z,12.65
2022-09-12T21:16:24.241Z,11.82
2022-09-12T21:19:00.189Z,10.45
2022-09-12T21:21:27.615Z,10.02
2022-09-12T21:24:01.001Z,11.80
2022-09-12T21:26:28.379Z,8.43
2022-09-12T21:28:55.925Z,13.95
2022-09-12T21:31:23.350Z,9.30
2022-09-12T21:33:52.264Z,10.50
2022-09-12T21:36:19.591Z,11.98
2022-09-12T21:38:46.745Z,9.23
2022-09-12T21:41:17.177Z,10.63
2022-09-12T21:43:45.241Z,9.90
2022-09-12T21:48:39.842Z,7.88
2022-09-12T21:51:07.244Z,9.25
2022-09-12T21:53:34.863Z,8.13
2022-09-12T21:56:09.100Z,12.38
2022-09-12T21:58:38.166Z,7.70
2022-09-12T22:01:08.682Z,7.70
2022-09-12T22:03:35.716Z,8.55
2022-09-12T22:06:07.072Z,8.52
2022-09-12T22:08:38.881Z,11.57
2022-09-12T22:11:13.320Z,7.00
2022-09-12T22:13:45.281Z,5.55
2022-09-12T22:16:12.946Z,7.15
2022-09-12T22:18:40.738Z,7.15
2022-09-12T22:21:16.006Z,8.13
2022-09-12T22:24:02.373Z,5.45
2022-09-12T22:26:33.357Z,6.90
2022-09-12T22:29:01.026Z,5.75
2022-09-12T22:31:28.818Z,7.97
2022-09-12T22:33:57.184Z,5.68
2022-09-12T22:36:28.141Z,5.85
2022-09-12T22:38:58.252Z,7.03
2022-09-12T22:41:25.825Z,6.57
2022-09-12T22:43:52.944Z,6.57
2022-09-12T22:46:20.337Z,7.75
2022-09-12T22:48:47.283Z,5.63
2022-09-12T22:51:14.362Z,7.75
2022-09-12T22:53:41.541Z,6.53
2022-09-12T22:56:09.923Z,7.10
2022-09-12T22:58:37.634Z,5.45
2022-09-12T23:01:08.406Z,7.40
2022-09-12T23:03:37.262Z,5.68
2022-09-12T23:06:08.647Z,7.25
2022-09-12T23:08:38.516Z,6.78
2022-09-12T23:11:15.212Z,7.75
2022-09-12T23:13:46.486Z,9.63
2022-09-12T23:16:23.153Z,6.25
2022-09-12T23:18:51.729Z,7.55
2022-09-12T23:21:22.071Z,6.10
2022-09-12T23:23:49.638Z,6.00
2022-09-12T23:26:29.907Z,6.22
2022-09-12T23:29:05.668Z,6.55
2022-09-12T23:31:34.684Z,6.88
2022-09-12T23:34:06.024Z,5.65
2022-09-12T23:36:34.363Z,8.50
2022-09-12T23:39:02.052Z,5.28
2022-09-12T23:41:29.460Z,6.20
2022-09-12T23:43:56.753Z,5.40
2022-09-12T23:46:23.662Z,7.55
2022-09-12T23:48:53.227Z,5.05
2022-09-12T23:51:21.891Z,5.43
2022-09-12T23:53:49.717Z,6.10
2022-09-12T23:56:17.078Z,7.55
2022-09-12T23:58:44.338Z,5.57
